Green Bay, WI (54304)

6:49 AM CST on December 10, 2016 (GMT -0600)
Southern Ashwaubenon | | Change Station
Active Advisory: Winter Storm Watch

Elev 643 ft 44.48 °N, 88.09 °W | Updated 1 minute ago

Snow
Snow
17.5 °F
Feels Like 11 °F
N
4.0
Wind Variable Wind from WNW

Today
High -- | Low -- °F
--% Chance of Precip.
Yesterday
High -- | Low -- °F
Precip. -- in
Pressure 30.43 in
Visibility 6.0 miles
Clouds Mostly Cloudy 2600 ft
Overcast 3600 ft
Windchill 11 °F
Dew Point 12 °F
Humidity 81%
Rainfall 0.00 in
Snow Depth Not available.
7:18 AM 4:12 PM
Waxing Gibbous, 83% visible
SPECI KGRB 101234Z AUTO 26011KT 6SM -SN BKN026 OVC036 M07/M12 A3043 RMK AO2 SNB29 P0000 T10721117
Pressure 30.43 in
Visibility 6.0 miles
Clouds Mostly Cloudy 2600 ft
Overcast 3600 ft
Windchill 11 °F
Dew Point 12 °F
Humidity 81%
Rainfall 0.00 in
Snow Depth Not available.
7:18 AM 4:12 PM
Waxing Gibbous, 83% visible
SPECI KGRB 101234Z AUTO 26011KT 6SM -SN BKN026 OVC036 M07/M12 A3043 RMK AO2 SNB29 P0000 T10721117

10-Day Weather Forecast

Almanac

Astronomy

Dec. 10, 2016 Rise Set
Actual Time
Civil Twilight
Nautical Twilight
Astronomical Twilight
Moon
Length of Visible Light
Length of Day
Tomorrow will be .
, % of the Moon is Illuminated

Today's Extremes

State Highs State Lows

Community

WunderPhotos

Upload Photos

1,956,540 photos uploaded!

WunderBlog® & News

Nearby

Air Quality

  Air Quality AQ Index Pollutant
Not available.

Snow Depth

Station Depth Elevation

Earthquake Activity

City Distance Mag. Time & Date
Minimum magnitude displayed is 2.5.

Coastal Water Temperatures

Place Temperature

Stations

Nearby Weather Stations

Station Location Temp. Windchill Dew Point Humidity Wind Precip. Elev Updated Type
                   

Watches & Warnings

Winter Storm Watch
Issued: 3:56 AM CST Dec. 10, 2016 – National Weather Service

... Winter Storm Watch remains in effect from this evening through
Sunday evening...

* timing... late this evening through Sunday evening. The heaviest
snow should fall Sunday.

* Snow accumulations... around 6 inches... and possibly an
additional inch or two at some locations near the lake.

* Main impact... hazardous travel will develop tonight and
continue through Sunday evening.

Precautionary/preparedness actions...

A Winter Storm Watch means there is a potential for significant
snow accumulations that may impact travel. Continue to monitor
the latest forecasts.